sensor_id;sensor_type;location;lat;lon;timestamp;P1;durP1;ratioP1;P2;durP2;ratioP2
6519;SDS011;3293;51.690;5.982;2023-05-10T00:02:12;52.97;;;32.57;;
6519;SDS011;3293;51.690;5.982;2023-05-10T00:07:13;49.03;;;30.67;;
6519;SDS011;3293;51.690;5.982;2023-05-10T00:12:13;58.60;;;33.33;;
6519;SDS011;3293;51.690;5.982;2023-05-10T00:17:14;58.33;;;32.33;;
6519;SDS011;3293;51.690;5.982;2023-05-10T00:22:14;53.03;;;30.47;;
6519;SDS011;3293;51.690;5.982;2023-05-10T00:27:15;56.43;;;31.57;;
6519;SDS011;3293;51.690;5.982;2023-05-10T00:32:14;48.67;;;29.70;;
6519;SDS011;3293;51.690;5.982;2023-05-10T00:37:15;51.43;;;29.60;;
6519;SDS011;3293;51.690;5.982;2023-05-10T00:42:15;49.73;;;29.70;;
6519;SDS011;3293;51.690;5.982;2023-05-10T00:47:17;50.00;;;29.27;;
6519;SDS011;3293;51.690;5.982;2023-05-10T00:52:17;56.80;;;29.30;;
6519;SDS011;3293;51.690;5.982;2023-05-10T00:57:18;53.03;;;29.60;;
6519;SDS011;3293;51.690;5.982;2023-05-10T01:02:18;56.53;;;29.17;;
6519;SDS011;3293;51.690;5.982;2023-05-10T01:07:18;54.20;;;28.93;;
6519;SDS011;3293;51.690;5.982;2023-05-10T01:12:18;48.13;;;26.83;;
6519;SDS011;3293;51.690;5.982;2023-05-10T01:17:18;49.17;;;27.30;;
6519;SDS011;3293;51.690;5.982;2023-05-10T01:22:39;47.00;;;25.90;;
6519;SDS011;3293;51.690;5.982;2023-05-10T01:28:09;47.40;;;26.37;;
6519;SDS011;3293;51.690;5.982;2023-05-10T01:33:19;50.53;;;27.87;;
6519;SDS011;3293;51.690;5.982;2023-05-10T01:49:10;54.73;;;30.60;;
6519;SDS011;3293;51.690;5.982;2023-05-10T01:54:19;53.80;;;28.70;;
6519;SDS011;3293;51.690;5.982;2023-05-10T01:59:21;53.20;;;29.07;;
6519;SDS011;3293;51.690;5.982;2023-05-10T02:04:27;50.17;;;29.03;;
6519;SDS011;3293;51.690;5.982;2023-05-10T02:09:27;53.97;;;30.33;;
6519;SDS011;3293;51.690;5.982;2023-05-10T02:14:32;53.63;;;30.73;;
6519;SDS011;3293;51.690;5.982;2023-05-10T02:19:36;61.33;;;30.50;;
6519;SDS011;3293;51.690;5.982;2023-05-10T02:24:38;64.47;;;32.13;;
6519;SDS011;3293;51.690;5.982;2023-05-10T02:29:39;60.53;;;30.60;;
6519;SDS011;3293;51.690;5.982;2023-05-10T02:34:40;66.10;;;33.33;;
6519;SDS011;3293;51.690;5.982;2023-05-10T02:39:41;61.30;;;33.03;;
6519;SDS011;3293;51.690;5.982;2023-05-10T02:44:48;64.73;;;33.43;;
6519;SDS011;3293;51.690;5.982;2023-05-10T02:49:52;66.27;;;36.90;;
6519;SDS011;3293;51.690;5.982;2023-05-10T02:54:54;66.50;;;34.90;;
6519;SDS011;3293;51.690;5.982;2023-05-10T02:59:58;72.43;;;37.57;;
6519;SDS011;3293;51.690;5.982;2023-05-10T03:04:59;75.97;;;39.60;;
6519;SDS011;3293;51.690;5.982;2023-05-10T03:09:59;94.20;;;43.57;;
6519;SDS011;3293;51.690;5.982;2023-05-10T03:15:04;92.43;;;41.77;;
6519;SDS011;3293;51.690;5.982;2023-05-10T03:20:22;98.97;;;45.70;;
6519;SDS011;3293;51.690;5.982;2023-05-10T03:25:25;101.50;;;45.63;;
6519;SDS011;3293;51.690;5.982;2023-05-10T03:30:26;100.50;;;46.83;;
6519;SDS011;3293;51.690;5.982;2023-05-10T03:35:26;96.90;;;45.87;;
6519;SDS011;3293;51.690;5.982;2023-05-10T03:40:26;93.13;;;42.93;;
6519;SDS011;3293;51.690;5.982;2023-05-10T03:45:31;91.37;;;43.73;;
6519;SDS011;3293;51.690;5.982;2023-05-10T03:50:31;86.13;;;41.50;;
6519;SDS011;3293;51.690;5.982;2023-05-10T03:55:31;108.20;;;48.23;;
6519;SDS011;3293;51.690;5.982;2023-05-10T04:00:33;106.53;;;49.23;;
6519;SDS011;3293;51.690;5.982;2023-05-10T04:05:34;96.07;;;45.20;;
6519;SDS011;3293;51.690;5.982;2023-05-10T04:10:34;106.77;;;47.43;;
6519;SDS011;3293;51.690;5.982;2023-05-10T04:15:35;97.47;;;46.53;;
6519;SDS011;3293;51.690;5.982;2023-05-10T04:20:35;107.63;;;49.77;;
6519;SDS011;3293;51.690;5.982;2023-05-10T04:25:35;95.23;;;46.03;;
6519;SDS011;3293;51.690;5.982;2023-05-10T04:30:35;115.03;;;49.90;;
6519;SDS011;3293;51.690;5.982;2023-05-10T04:35:35;102.67;;;48.90;;
6519;SDS011;3293;51.690;5.982;2023-05-10T04:40:35;104.77;;;49.50;;
6519;SDS011;3293;51.690;5.982;2023-05-10T04:45:35;98.87;;;47.50;;
6519;SDS011;3293;51.690;5.982;2023-05-10T04:50:35;105.63;;;49.27;;
6519;SDS011;3293;51.690;5.982;2023-05-10T04:55:36;104.17;;;50.30;;
6519;SDS011;3293;51.690;5.982;2023-05-10T05:00:36;100.60;;;48.03;;
6519;SDS011;3293;51.690;5.982;2023-05-10T05:05:36;93.90;;;47.37;;
6519;SDS011;3293;51.690;5.982;2023-05-10T05:10:36;99.87;;;50.27;;
6519;SDS011;3293;51.690;5.982;2023-05-10T05:15:36;100.63;;;49.83;;
6519;SDS011;3293;51.690;5.982;2023-05-10T05:20:36;97.47;;;46.80;;
6519;SDS011;3293;51.690;5.982;2023-05-10T05:25:37;94.80;;;48.87;;
6519;SDS011;3293;51.690;5.982;2023-05-10T05:30:37;88.03;;;45.00;;
6519;SDS011;3293;51.690;5.982;2023-05-10T05:35:37;89.80;;;44.30;;
6519;SDS011;3293;51.690;5.982;2023-05-10T05:40:37;82.43;;;41.93;;
6519;SDS011;3293;51.690;5.982;2023-05-10T05:45:37;85.97;;;43.47;;
6519;SDS011;3293;51.690;5.982;2023-05-10T05:50:37;82.77;;;40.93;;
6519;SDS011;3293;51.690;5.982;2023-05-10T05:55:37;79.13;;;40.23;;
6519;SDS011;3293;51.690;5.982;2023-05-10T06:00:37;78.93;;;39.27;;
6519;SDS011;3293;51.690;5.982;2023-05-10T06:05:37;78.47;;;39.33;;
6519;SDS011;3293;51.690;5.982;2023-05-10T06:10:38;66.27;;;36.70;;
6519;SDS011;3293;51.690;5.982;2023-05-10T06:15:38;74.20;;;37.53;;
6519;SDS011;3293;51.690;5.982;2023-05-10T06:20:38;63.73;;;36.67;;
6519;SDS011;3293;51.690;5.982;2023-05-10T06:25:40;64.57;;;35.13;;
6519;SDS011;3293;51.690;5.982;2023-05-10T06:30:40;65.43;;;34.70;;
6519;SDS011;3293;51.690;5.982;2023-05-10T06:35:40;67.30;;;36.23;;
6519;SDS011;3293;51.690;5.982;2023-05-10T06:40:43;59.47;;;34.83;;
6519;SDS011;3293;51.690;5.982;2023-05-10T06:45:43;59.87;;;33.83;;
6519;SDS011;3293;51.690;5.982;2023-05-10T06:50:43;56.57;;;33.17;;
6519;SDS011;3293;51.690;5.982;2023-05-10T06:55:44;62.27;;;33.97;;
6519;SDS011;3293;51.690;5.982;2023-05-10T07:00:44;53.37;;;32.97;;
6519;SDS011;3293;51.690;5.982;2023-05-10T07:05:46;47.57;;;31.47;;
6519;SDS011;3293;51.690;5.982;2023-05-10T07:10:46;57.00;;;35.00;;
6519;SDS011;3293;51.690;5.982;2023-05-10T07:15:46;51.57;;;33.53;;
6519;SDS011;3293;51.690;5.982;2023-05-10T07:20:47;49.23;;;33.17;;
6519;SDS011;3293;51.690;5.982;2023-05-10T07:25:47;45.93;;;30.93;;
6519;SDS011;3293;51.690;5.982;2023-05-10T07:30:49;46.77;;;30.13;;
6519;SDS011;3293;51.690;5.982;2023-05-10T07:35:49;45.00;;;29.13;;
6519;SDS011;3293;51.690;5.982;2023-05-10T07:40:50;45.17;;;28.47;;
6519;SDS011;3293;51.690;5.982;2023-05-10T07:45:50;48.70;;;29.13;;
6519;SDS011;3293;51.690;5.982;2023-05-10T07:50:50;43.83;;;28.67;;
6519;SDS011;3293;51.690;5.982;2023-05-10T07:55:50;41.33;;;27.73;;
6519;SDS011;3293;51.690;5.982;2023-05-10T08:00:54;44.20;;;26.83;;
6519;SDS011;3293;51.690;5.982;2023-05-10T08:05:54;43.90;;;27.27;;
6519;SDS011;3293;51.690;5.982;2023-05-10T08:10:54;42.97;;;27.40;;
6519;SDS011;3293;51.690;5.982;2023-05-10T08:15:54;40.53;;;26.53;;
6519;SDS011;3293;51.690;5.982;2023-05-10T08:20:54;42.30;;;24.93;;
6519;SDS011;3293;51.690;5.982;2023-05-10T08:25:54;43.73;;;27.37;;
6519;SDS011;3293;51.690;5.982;2023-05-10T08:30:55;38.23;;;25.03;;
6519;SDS011;3293;51.690;5.982;2023-05-10T08:35:55;44.60;;;27.63;;
6519;SDS011;3293;51.690;5.982;2023-05-10T08:40:55;46.57;;;29.87;;
6519;SDS011;3293;51.690;5.982;2023-05-10T08:46:01;52.93;;;32.30;;
6519;SDS011;3293;51.690;5.982;2023-05-10T08:51:03;49.47;;;31.40;;
6519;SDS011;3293;51.690;5.982;2023-05-10T08:56:04;47.73;;;31.97;;
6519;SDS011;3293;51.690;5.982;2023-05-10T09:01:04;44.10;;;30.40;;
6519;SDS011;3293;51.690;5.982;2023-05-10T09:06:05;44.87;;;30.40;;
6519;SDS011;3293;51.690;5.982;2023-05-10T09:11:06;34.23;;;25.93;;
6519;SDS011;3293;51.690;5.982;2023-05-10T09:16:06;38.27;;;24.67;;
6519;SDS011;3293;51.690;5.982;2023-05-10T09:21:07;34.23;;;25.10;;
6519;SDS011;3293;51.690;5.982;2023-05-10T09:26:08;30.13;;;23.13;;
6519;SDS011;3293;51.690;5.982;2023-05-10T09:31:08;34.20;;;23.93;;
6519;SDS011;3293;51.690;5.982;2023-05-10T09:36:08;34.67;;;23.27;;
6519;SDS011;3293;51.690;5.982;2023-05-10T09:41:15;29.37;;;22.43;;
6519;SDS011;3293;51.690;5.982;2023-05-10T09:46:19;30.83;;;23.93;;
6519;SDS011;3293;51.690;5.982;2023-05-10T09:56:53;35.00;;;25.17;;
6519;SDS011;3293;51.690;5.982;2023-05-10T10:01:53;30.87;;;25.43;;
6519;SDS011;3293;51.690;5.982;2023-05-10T10:07:00;32.97;;;25.73;;
6519;SDS011;3293;51.690;5.982;2023-05-10T10:12:01;33.87;;;24.77;;
6519;SDS011;3293;51.690;5.982;2023-05-10T10:17:02;30.40;;;24.63;;
6519;SDS011;3293;51.690;5.982;2023-05-10T10:22:02;28.70;;;23.73;;
6519;SDS011;3293;51.690;5.982;2023-05-10T10:27:14;31.57;;;24.17;;
6519;SDS011;3293;51.690;5.982;2023-05-10T10:32:46;31.87;;;23.60;;
6519;SDS011;3293;51.690;5.982;2023-05-10T10:38:02;35.07;;;24.47;;
6519;SDS011;3293;51.690;5.982;2023-05-10T10:48:26;24.90;;;19.13;;
6519;SDS011;3293;51.690;5.982;2023-05-10T10:53:26;24.90;;;20.80;;
6519;SDS011;3293;51.690;5.982;2023-05-10T10:58:30;22.07;;;18.90;;
6519;SDS011;3293;51.690;5.982;2023-05-10T11:03:34;27.53;;;17.60;;
6519;SDS011;3293;51.690;5.982;2023-05-10T11:08:35;20.50;;;17.00;;
6519;SDS011;3293;51.690;5.982;2023-05-10T11:13:43;22.80;;;17.23;;
6519;SDS011;3293;51.690;5.982;2023-05-10T11:18:51;22.83;;;16.80;;
6519;SDS011;3293;51.690;5.982;2023-05-10T11:23:53;23.60;;;19.30;;
6519;SDS011;3293;51.690;5.982;2023-05-10T11:28:55;25.93;;;19.90;;
6519;SDS011;3293;51.690;5.982;2023-05-10T11:33:57;29.67;;;20.13;;
6519;SDS011;3293;51.690;5.982;2023-05-10T11:38:58;23.90;;;18.60;;
6519;SDS011;3293;51.690;5.982;2023-05-10T11:43:58;25.70;;;19.00;;
6519;SDS011;3293;51.690;5.982;2023-05-10T11:48:59;22.47;;;17.73;;
6519;SDS011;3293;51.690;5.982;2023-05-10T11:54:01;23.63;;;19.13;;
6519;SDS011;3293;51.690;5.982;2023-05-10T11:59:06;21.90;;;17.00;;
6519;SDS011;3293;51.690;5.982;2023-05-10T12:04:07;18.27;;;15.85;;
6519;SDS011;3293;51.690;5.982;2023-05-10T12:09:07;20.67;;;15.38;;
6519;SDS011;3293;51.690;5.982;2023-05-10T12:14:08;19.88;;;15.15;;
6519;SDS011;3293;51.690;5.982;2023-05-10T12:19:08;19.15;;;15.10;;
6519;SDS011;3293;51.690;5.982;2023-05-10T12:24:08;18.52;;;14.18;;
6519;SDS011;3293;51.690;5.982;2023-05-10T12:29:17;15.50;;;13.32;;
6519;SDS011;3293;51.690;5.982;2023-05-10T12:39:25;14.00;;;12.55;;
6519;SDS011;3293;51.690;5.982;2023-05-10T12:44:25;15.20;;;11.65;;
6519;SDS011;3293;51.690;5.982;2023-05-10T12:49:25;15.13;;;13.38;;
6519;SDS011;3293;51.690;5.982;2023-05-10T12:54:25;15.93;;;12.38;;
6519;SDS011;3293;51.690;5.982;2023-05-10T12:59:25;15.18;;;13.48;;
6519;SDS011;3293;51.690;5.982;2023-05-10T13:04:25;19.85;;;13.93;;
6519;SDS011;3293;51.690;5.982;2023-05-10T13:09:26;16.63;;;13.77;;
6519;SDS011;3293;51.690;5.982;2023-05-10T13:14:26;20.93;;;16.60;;
6519;SDS011;3293;51.690;5.982;2023-05-10T13:19:26;20.10;;;16.17;;
6519;SDS011;3293;51.690;5.982;2023-05-10T13:24:26;19.80;;;17.67;;
6519;SDS011;3293;51.690;5.982;2023-05-10T13:29:26;24.30;;;19.00;;
6519;SDS011;3293;51.690;5.982;2023-05-10T13:34:26;23.13;;;20.13;;
6519;SDS011;3293;51.690;5.982;2023-05-10T13:39:26;23.50;;;19.80;;
6519;SDS011;3293;51.690;5.982;2023-05-10T13:44:26;24.48;;;20.50;;
6519;SDS011;3293;51.690;5.982;2023-05-10T13:49:26;23.88;;;19.42;;
6519;SDS011;3293;51.690;5.982;2023-05-10T13:54:27;21.95;;;16.95;;
6519;SDS011;3293;51.690;5.982;2023-05-10T13:59:28;17.70;;;15.80;;
6519;SDS011;3293;51.690;5.982;2023-05-10T14:04:30;19.20;;;17.17;;
6519;SDS011;3293;51.690;5.982;2023-05-10T14:09:31;12.63;;;11.32;;
6519;SDS011;3293;51.690;5.982;2023-05-10T14:14:31;15.77;;;12.50;;
6519;SDS011;3293;51.690;5.982;2023-05-10T14:19:31;12.55;;;10.68;;
6519;SDS011;3293;51.690;5.982;2023-05-10T14:24:33;12.13;;;10.18;;
6519;SDS011;3293;51.690;5.982;2023-05-10T14:29:36;12.48;;;11.18;;
6519;SDS011;3293;51.690;5.982;2023-05-10T14:34:36;12.02;;;10.77;;
6519;SDS011;3293;51.690;5.982;2023-05-10T14:39:36;12.88;;;10.70;;
6519;SDS011;3293;51.690;5.982;2023-05-10T14:44:37;12.57;;;11.23;;
6519;SDS011;3293;51.690;5.982;2023-05-10T14:49:37;11.25;;;10.00;;
6519;SDS011;3293;51.690;5.982;2023-05-10T14:54:37;11.45;;;10.07;;
6519;SDS011;3293;51.690;5.982;2023-05-10T14:59:38;12.80;;;11.57;;
6519;SDS011;3293;51.690;5.982;2023-05-10T15:04:38;11.48;;;10.30;;
6519;SDS011;3293;51.690;5.982;2023-05-10T15:09:38;11.88;;;10.52;;
6519;SDS011;3293;51.690;5.982;2023-05-10T15:14:38;10.18;;;8.90;;
6519;SDS011;3293;51.690;5.982;2023-05-10T15:19:38;10.88;;;9.75;;
6519;SDS011;3293;51.690;5.982;2023-05-10T15:24:38;12.30;;;9.40;;
6519;SDS011;3293;51.690;5.982;2023-05-10T15:29:38;11.40;;;9.35;;
6519;SDS011;3293;51.690;5.982;2023-05-10T15:34:38;11.20;;;10.10;;
6519;SDS011;3293;51.690;5.982;2023-05-10T15:39:38;11.18;;;9.98;;
6519;SDS011;3293;51.690;5.982;2023-05-10T15:44:38;10.77;;;9.77;;
6519;SDS011;3293;51.690;5.982;2023-05-10T15:49:38;10.25;;;9.30;;
6519;SDS011;3293;51.690;5.982;2023-05-10T15:54:38;12.13;;;10.07;;
6519;SDS011;3293;51.690;5.982;2023-05-10T15:59:38;12.18;;;10.27;;
6519;SDS011;3293;51.690;5.982;2023-05-10T16:04:38;10.70;;;9.70;;
6519;SDS011;3293;51.690;5.982;2023-05-10T16:09:38;7.68;;;6.88;;
6519;SDS011;3293;51.690;5.982;2023-05-10T16:14:38;7.55;;;6.75;;
6519;SDS011;3293;51.690;5.982;2023-05-10T16:19:39;6.78;;;6.18;;
6519;SDS011;3293;51.690;5.982;2023-05-10T16:24:39;7.93;;;7.22;;
6519;SDS011;3293;51.690;5.982;2023-05-10T16:29:40;7.07;;;6.47;;
6519;SDS011;3293;51.690;5.982;2023-05-10T16:34:40;7.32;;;6.72;;
6519;SDS011;3293;51.690;5.982;2023-05-10T16:39:40;7.40;;;6.70;;
6519;SDS011;3293;51.690;5.982;2023-05-10T16:44:40;9.52;;;8.43;;
6519;SDS011;3293;51.690;5.982;2023-05-10T16:49:41;8.93;;;8.02;;
6519;SDS011;3293;51.690;5.982;2023-05-10T16:54:41;10.45;;;9.45;;
6519;SDS011;3293;51.690;5.982;2023-05-10T16:59:41;10.80;;;9.80;;
6519;SDS011;3293;51.690;5.982;2023-05-10T17:04:41;11.13;;;10.02;;
6519;SDS011;3293;51.690;5.982;2023-05-10T17:09:41;11.70;;;10.50;;
6519;SDS011;3293;51.690;5.982;2023-05-10T17:14:42;12.65;;;11.38;;
6519;SDS011;3293;51.690;5.982;2023-05-10T17:19:45;12.52;;;11.23;;
6519;SDS011;3293;51.690;5.982;2023-05-10T17:24:45;13.38;;;12.07;;
6519;SDS011;3293;51.690;5.982;2023-05-10T17:29:45;14.18;;;12.77;;
6519;SDS011;3293;51.690;5.982;2023-05-10T17:34:45;13.93;;;12.55;;
6519;SDS011;3293;51.690;5.982;2023-05-10T17:39:45;17.27;;;15.57;;
6519;SDS011;3293;51.690;5.982;2023-05-10T17:44:45;17.65;;;16.05;;
6519;SDS011;3293;51.690;5.982;2023-05-10T17:49:44;19.53;;;17.17;;
6519;SDS011;3293;51.690;5.982;2023-05-10T17:54:45;20.57;;;18.57;;
6519;SDS011;3293;51.690;5.982;2023-05-10T17:59:45;20.53;;;18.53;;
6519;SDS011;3293;51.690;5.982;2023-05-10T18:04:46;19.60;;;17.60;;
6519;SDS011;3293;51.690;5.982;2023-05-10T18:09:47;18.27;;;16.57;;
6519;SDS011;3293;51.690;5.982;2023-05-10T18:14:47;18.17;;;16.37;;
6519;SDS011;3293;51.690;5.982;2023-05-10T18:19:47;20.77;;;18.60;;
6519;SDS011;3293;51.690;5.982;2023-05-10T18:24:48;23.30;;;20.87;;
6519;SDS011;3293;51.690;5.982;2023-05-10T18:29:48;20.57;;;18.37;;
6519;SDS011;3293;51.690;5.982;2023-05-10T18:34:48;23.07;;;20.67;;
6519;SDS011;3293;51.690;5.982;2023-05-10T18:39:49;23.37;;;21.03;;
6519;SDS011;3293;51.690;5.982;2023-05-10T18:44:50;22.67;;;20.27;;
6519;SDS011;3293;51.690;5.982;2023-05-10T18:49:50;24.27;;;21.70;;
6519;SDS011;3293;51.690;5.982;2023-05-10T18:54:51;23.87;;;21.37;;
6519;SDS011;3293;51.690;5.982;2023-05-10T18:59:52;25.73;;;23.00;;
6519;SDS011;3293;51.690;5.982;2023-05-10T19:04:52;25.27;;;22.57;;
6519;SDS011;3293;51.690;5.982;2023-05-10T19:09:53;26.07;;;22.93;;
6519;SDS011;3293;51.690;5.982;2023-05-10T19:14:53;26.53;;;23.73;;
6519;SDS011;3293;51.690;5.982;2023-05-10T19:19:54;25.27;;;22.77;;
6519;SDS011;3293;51.690;5.982;2023-05-10T19:24:54;26.43;;;23.63;;
6519;SDS011;3293;51.690;5.982;2023-05-10T19:29:54;27.63;;;24.70;;
6519;SDS011;3293;51.690;5.982;2023-05-10T19:34:54;28.33;;;25.27;;
6519;SDS011;3293;51.690;5.982;2023-05-10T19:39:55;27.43;;;24.50;;
6519;SDS011;3293;51.690;5.982;2023-05-10T19:44:56;27.60;;;24.63;;
6519;SDS011;3293;51.690;5.982;2023-05-10T19:49:56;28.57;;;25.57;;
6519;SDS011;3293;51.690;5.982;2023-05-10T19:54:56;31.33;;;26.70;;
6519;SDS011;3293;51.690;5.982;2023-05-10T19:59:57;33.27;;;29.37;;
6519;SDS011;3293;51.690;5.982;2023-05-10T20:04:57;31.50;;;27.63;;
6519;SDS011;3293;51.690;5.982;2023-05-10T20:09:57;37.63;;;31.27;;
6519;SDS011;3293;51.690;5.982;2023-05-10T20:14:58;35.43;;;30.23;;
6519;SDS011;3293;51.690;5.982;2023-05-10T20:19:58;39.67;;;32.17;;
6519;SDS011;3293;51.690;5.982;2023-05-10T20:24:58;37.60;;;31.40;;
6519;SDS011;3293;51.690;5.982;2023-05-10T20:29:58;39.80;;;32.33;;
6519;SDS011;3293;51.690;5.982;2023-05-10T20:34:58;37.87;;;30.87;;
6519;SDS011;3293;51.690;5.982;2023-05-10T20:39:59;35.97;;;30.40;;
6519;SDS011;3293;51.690;5.982;2023-05-10T20:44:59;35.27;;;29.13;;
6519;SDS011;3293;51.690;5.982;2023-05-10T20:50:00;36.83;;;30.67;;
6519;SDS011;3293;51.690;5.982;2023-05-10T20:55:00;42.43;;;30.47;;
6519;SDS011;3293;51.690;5.982;2023-05-10T21:00:01;34.43;;;27.90;;
6519;SDS011;3293;51.690;5.982;2023-05-10T21:05:02;31.17;;;24.90;;
6519;SDS011;3293;51.690;5.982;2023-05-10T21:10:02;32.67;;;25.63;;
6519;SDS011;3293;51.690;5.982;2023-05-10T21:15:02;29.73;;;24.23;;
6519;SDS011;3293;51.690;5.982;2023-05-10T21:20:03;30.53;;;23.80;;
6519;SDS011;3293;51.690;5.982;2023-05-10T21:25:04;27.20;;;22.90;;
6519;SDS011;3293;51.690;5.982;2023-05-10T21:30:05;27.03;;;22.77;;
6519;SDS011;3293;51.690;5.982;2023-05-10T21:35:05;28.77;;;22.93;;
6519;SDS011;3293;51.690;5.982;2023-05-10T21:40:06;29.20;;;22.90;;
6519;SDS011;3293;51.690;5.982;2023-05-10T21:45:07;27.77;;;22.67;;
6519;SDS011;3293;51.690;5.982;2023-05-10T21:50:07;28.60;;;21.80;;
6519;SDS011;3293;51.690;5.982;2023-05-10T21:55:11;27.13;;;20.90;;
6519;SDS011;3293;51.690;5.982;2023-05-10T22:00:11;28.43;;;22.40;;
6519;SDS011;3293;51.690;5.982;2023-05-10T22:05:12;28.83;;;22.93;;
6519;SDS011;3293;51.690;5.982;2023-05-10T22:10:12;30.73;;;25.37;;
6519;SDS011;3293;51.690;5.982;2023-05-10T22:15:12;33.77;;;26.33;;
6519;SDS011;3293;51.690;5.982;2023-05-10T22:20:12;33.17;;;27.07;;
6519;SDS011;3293;51.690;5.982;2023-05-10T22:25:13;32.47;;;26.47;;
6519;SDS011;3293;51.690;5.982;2023-05-10T22:30:13;31.03;;;25.60;;
6519;SDS011;3293;51.690;5.982;2023-05-10T22:35:14;31.10;;;25.93;;
6519;SDS011;3293;51.690;5.982;2023-05-10T22:40:14;28.43;;;23.37;;
6519;SDS011;3293;51.690;5.982;2023-05-10T22:45:14;31.60;;;26.13;;
6519;SDS011;3293;51.690;5.982;2023-05-10T22:50:15;34.07;;;26.60;;
6519;SDS011;3293;51.690;5.982;2023-05-10T22:55:15;31.93;;;25.73;;
6519;SDS011;3293;51.690;5.982;2023-05-10T23:00:15;32.67;;;26.60;;
6519;SDS011;3293;51.690;5.982;2023-05-10T23:05:16;38.73;;;28.10;;
6519;SDS011;3293;51.690;5.982;2023-05-10T23:10:17;30.03;;;26.37;;
6519;SDS011;3293;51.690;5.982;2023-05-10T23:15:18;35.33;;;27.90;;
6519;SDS011;3293;51.690;5.982;2023-05-10T23:20:18;34.70;;;27.23;;
6519;SDS011;3293;51.690;5.982;2023-05-10T23:25:18;36.87;;;26.10;;
6519;SDS011;3293;51.690;5.982;2023-05-10T23:30:18;34.47;;;27.97;;
6519;SDS011;3293;51.690;5.982;2023-05-10T23:35:18;37.77;;;29.13;;
6519;SDS011;3293;51.690;5.982;2023-05-10T23:40:18;33.97;;;28.33;;
6519;SDS011;3293;51.690;5.982;2023-05-10T23:45:18;42.67;;;31.43;;
6519;SDS011;3293;51.690;5.982;2023-05-10T23:50:18;39.10;;;31.83;;
6519;SDS011;3293;51.690;5.982;2023-05-10T23:55:18;41.53;;;33.27;;
